Latest Weather Observations for Sheoaks

IDV60901

Issued at 1:41 pm EDT Monday 23 October 2017 (issued every 10 minutes, with the page automatically refreshed every 10 minutes)

About weather observations | Map of Melbourne area stations | Latest observations for Melbourne area | Other Formats
Station Details ID: 087168 Name: SHEOAKS Lat: -37.91 Lon: 144.13 Height: 236.7 m
Data from the previous 72 hours. | See also: Recent months at Sheoaks
Date/Time
EDT
Temp
°C
App
Temp
°C
Dew
Point
°C
Rel
Hum
%
Delta-T
°C
Wind Press
QNH
hPa
Press
MSL
hPa
Rain since
9am
mm
Dir  Spd
km/h
Gust
km/h
Spd
kts
Gust
kts
23/01:30pm 16.4 14.6 9.6 64 3.6 WNW 9 17 5 9 1018.0 1017.9 0.0
23/01:00pm 15.7 13.6 9.6 67 3.2 W 11 19 6 10 1018.4 1018.4 0.0
23/12:30pm 14.4 11.7 9.0 70 2.8 W 13 20 7 11 1018.8 1018.8 0.0
23/12:00pm 14.6 12.7 9.2 70 2.8 WSW 9 17 5 9 1019.0 1019.0 0.0
23/11:30am 13.9 11.2 9.1 73 2.5 W 13 19 7 10 1019.3 1019.3 0.0
23/11:00am 14.3 12.3 8.7 69 2.9 W 9 15 5 8 1019.4 1019.4 0.0
23/10:30am 14.0 12.7 9.2 73 2.5 WNW 6 11 3 6 1019.1 1019.1 0.0
23/10:00am 12.4 11.1 9.2 81 1.6 WNW 6 9 3 5 1019.1 1019.1 0.0
23/09:30am 13.2 12.9 11.6 90 0.9 NE 4 6 2 3 1019.0 1019.0 0.0
23/09:00am 11.0 9.8 10.2 95 0.4 W 7 11 4 6 1019.3 1019.3 0.6
23/08:30am 10.5 9.4 10.0 97 0.3 W 6 15 3 8 1019.2 1019.2 0.6
23/08:00am 9.8 8.4 9.5 98 0.2 WNW 7 13 4 7 1019.1 1019.1 0.6
23/07:30am 10.0 9.2 9.7 98 0.2 NW 4 6 2 3 1018.9 1018.9 0.6
23/07:00am 9.6 8.1 9.1 97 0.2 WNW 7 11 4 6 1018.8 1018.8 0.6
23/06:30am 9.7 7.8 9.2 97 0.3 W 9 15 5 8 1018.8 1018.8 0.6
23/06:00am 9.7 8.4 9.2 97 0.2 WNW 6 9 3 5 1018.7 1018.7 0.6
23/05:30am 9.6 8.1 9.0 96 0.3 W 7 11 4 6 1018.8 1018.8 0.4
23/05:00am 9.5 8.1 8.7 95 0.4 W 6 9 3 5 1018.6 1018.6 0.4
23/04:30am 9.5 8.5 8.7 95 0.4 W 4 7 2 4 1018.6 1018.6 0.4
23/04:00am 9.4 7.9 8.5 94 0.4 WNW 6 9 3 5 1018.6 1018.6 0.4
23/03:30am 9.5 8.0 8.6 94 0.4 WNW 6 7 3 4 1018.6 1018.6 0.4
23/03:00am 9.4 7.3 8.3 93 0.5 WSW 9 13 5 7 1018.6 1018.6 0.4
23/02:30am 9.5 7.4 8.4 93 0.5 SW 9 13 5 7 1018.7 1018.7 0.4
23/02:00am 9.8 7.8 8.7 93 0.5 WSW 9 15 5 8 1019.1 1019.1 0.4
23/01:30am 10.0 8.4 8.8 92 0.6 W 7 13 4 7 1019.3 1019.3 0.4
23/01:00am 9.8 7.8 8.7 93 0.5 WSW 9 13 5 7 1019.6 1019.6 0.4
23/12:30am 10.1 8.6 9.0 93 0.6 W 7 15 4 8 1019.7 1019.7 0.4
23/12:00am 9.9 8.5 8.7 92 0.6 W 6 9 3 5 1019.7 1019.7 0.4
 
Date/Time
EDT
Temp
°C
App
Temp
°C
Dew
Point
°C
Rel
Hum
%
Delta-T
°C
Wind Press
QNH
hPa
Press
MSL
hPa
Rain since
9am
mm
Dir  Spd
km/h
Gust
km/h
Spd
kts
Gust
kts
22/11:30pm 10.5 9.1 8.9 90 0.8 WSW 6 9 3 5 1019.8 1019.8 0.4
22/11:00pm 10.9 9.4 9.0 88 1.0 WSW 7 13 4 7 1019.9 1019.9 0.4
22/10:30pm 11.1 9.6 9.2 88 1.0 WSW 7 13 4 7 1019.8 1019.8 0.4
22/10:00pm 11.1 9.2 9.2 88 1.0 SW 9 17 5 9 1019.8 1019.8 0.4
22/09:30pm 11.1 9.2 9.0 87 1.1 WSW 9 19 5 10 1019.7 1019.7 0.4
22/09:00pm 10.7 8.6 8.3 85 1.2 SW 9 19 5 10 1019.3 1019.3 0.4
22/08:30pm 10.9 8.8 8.1 83 1.4 WSW 9 13 5 7 1019.0 1019.0 0.4
22/08:00pm 11.9 10.2 8.4 79 1.7 WSW 7 13 4 7 1018.8 1018.8 0.4
22/07:30pm 13.2 11.2 8.5 73 2.4 SW 9 15 5 8 1018.7 1018.7 0.4
22/07:00pm 14.0 10.5 8.6 70 2.7 SW 17 26 9 14 1018.3 1018.3 0.4
22/06:30pm 15.0 11.2 9.1 68 3.1 SW 19 26 10 14 1017.9 1017.8 0.4
22/06:00pm 15.2 11.5 9.6 69 2.9 SW 19 26 10 14 1017.6 1017.5 0.4
22/05:30pm 15.4 11.9 8.9 65 3.4 WSW 17 28 9 15 1017.4 1017.3 0.4
22/05:00pm 17.2 14.3 9.6 61 4.0 SW 15 26 8 14 1017.2 1017.1 0.4
22/04:30pm 15.6 13.9 11.2 75 2.4 SSW 11 17 6 9 1017.2 1017.1 0.4
22/04:00pm 15.4 12.2 10.0 70 2.8 SW 17 24 9 13 1017.3 1017.2 0.4
22/03:30pm 15.0 12.6 10.0 72 2.6 SW 13 28 7 15 1017.5 1017.4 0.4
22/03:00pm 15.0 12.1 9.8 71 2.7 SW 15 24 8 13 1017.8 1017.7 0.4
22/02:30pm 14.8 12.0 10.0 73 2.5 WSW 15 24 8 13 1017.8 1017.7 0.4
22/02:00pm 14.2 12.8 12.1 87 1.1 W 11 17 6 9 1017.9 1017.8 0.4
22/01:30pm 14.6 12.7 10.6 77 2.1 SW 11 19 6 10 1018.1 1018.0 0.2
22/01:00pm 13.9 12.4 11.8 87 1.1 W 11 22 6 12 1018.3 1018.3 0.2
22/12:30pm 12.2 10.4 10.8 91 0.7 W 11 17 6 9 1018.8 1018.8 0.2
22/12:00pm 12.0 10.0 10.2 89 0.9 W 11 17 6 9 1018.9 1018.9 0.0
22/11:30am 11.9 10.2 9.8 87 1.1 W 9 15 5 8 1019.0 1019.0 0.0
22/11:00am 11.8 9.4 8.8 82 1.5 WSW 11 20 6 11 1019.1 1019.1 0.0
22/10:30am 12.6 9.6 9.4 81 1.6 WSW 15 22 8 12 1019.0 1019.0 0.0
22/10:00am 11.7 9.2 9.6 87 1.1 WSW 13 22 7 12 1018.8 1018.8 0.0
22/09:30am 10.7 7.8 9.8 94 0.5 W 15 28 8 15 1019.0 1019.0 0.0
22/09:00am 10.3 7.3 9.2 93 0.6 WSW 15 24 8 13 1019.1 1019.1 0.4
22/08:30am 10.1 7.5 9.3 95 0.4 WSW 13 20 7 11 1019.0 1019.0 0.4
22/08:00am 9.6 6.5 9.0 96 0.3 W 15 24 8 13 1018.7 1018.7 0.4
22/07:30am 9.2 6.0 8.6 96 0.3 WSW 15 22 8 12 1018.6 1018.6 0.4
22/07:00am 9.1 6.3 8.5 96 0.3 WSW 13 20 7 11 1018.3 1018.3 0.4
22/06:30am 9.0 5.8 8.4 96 0.3 WSW 15 24 8 13 1018.1 1018.0 0.4
22/06:00am 8.5 5.9 7.9 96 0.3 W 11 17 6 9 1017.9 1017.8 0.2
22/05:30am 8.7 6.2 8.1 96 0.3 WSW 11 20 6 11 1018.2 1018.2 0.2
22/05:00am 9.0 6.5 8.4 96 0.3 WSW 11 17 6 9 1018.2 1018.2 0.2
22/04:30am 9.0 6.9 8.4 96 0.3 WSW 9 17 5 9 1018.5 1018.5 0.2
22/04:00am 9.0 6.5 8.4 96 0.3 WSW 11 20 6 11 1018.5 1018.5 0.2
22/03:30am 8.9 6.4 8.1 95 0.4 WSW 11 20 6 11 1018.8 1018.8 0.2
22/03:00am 8.9 6.0 8.0 94 0.4 W 13 22 7 12 1018.8 1018.8 0.2
22/02:30am 8.9 6.3 7.8 93 0.5 W 11 19 6 10 1019.4 1019.4 0.0
22/02:00am 9.1 6.1 7.5 90 0.8 WSW 13 22 7 12 1019.8 1019.8 0.0
22/01:30am 9.3 6.2 7.4 88 0.9 W 13 20 7 11 1020.1 1020.1 0.0
22/01:00am 8.9 6.1 7.0 88 0.9 WNW 11 15 6 8 1020.5 1020.4 0.0
22/12:30am 9.2 6.6 7.8 91 0.7 W 11 19 6 10 1020.8 1020.7 0.0
22/12:00am 9.0 6.8 7.8 92 0.6 W 9 15 5 8 1021.1 1021.0 0.0
 
Date/Time
EDT
Temp
°C
App
Temp
°C
Dew
Point
°C
Rel
Hum
%
Delta-T
°C
Wind Press
QNH
hPa
Press
MSL
hPa
Rain since
9am
mm
Dir  Spd
km/h
Gust
km/h
Spd
kts
Gust
kts
21/11:30pm 9.4 6.8 7.8 90 0.8 W 11 17 6 9 1021.3 1021.2 0.0
21/11:00pm 9.4 7.6 7.8 90 0.8 WSW 7 15 4 8 1021.4 1021.3 0.0
21/10:30pm 9.3 7.1 7.9 91 0.7 W 9 19 5 10 1021.6 1021.5 0.0
21/10:00pm 9.1 6.5 7.7 91 0.7 W 11 15 6 8 1022.0 1022.0 0.0
21/09:30pm 9.0 6.7 7.5 90 0.7 WSW 9 13 5 7 1022.2 1022.2 0.0
21/09:00pm 9.9 6.0 7.0 82 1.4 SW 17 28 9 15 1022.3 1022.3 0.0
21/08:30pm 10.1 7.6 6.4 78 1.7 WSW 9 19 5 10 1022.1 1022.1 0.0
21/08:00pm 10.8 8.4 6.9 77 1.9 WSW 9 17 5 9 1022.1 1022.1 0.0
21/07:30pm 11.2 8.3 6.3 72 2.3 WSW 11 19 6 10 1022.1 1022.1 0.0
21/07:00pm 11.1 7.4 6.3 72 2.3 WSW 15 24 8 13 1022.1 1022.1 0.0
21/06:30pm 12.2 8.4 6.0 66 3.0 SW 15 24 8 13 1021.9 1021.9 0.0
21/06:00pm 12.4 9.9 6.5 67 2.8 WSW 9 19 5 10 1022.0 1022.0 0.0
21/05:30pm 12.4 9.1 6.2 66 3.0 WSW 13 19 7 10 1022.2 1022.2 0.0
21/05:00pm 13.0 9.6 5.9 62 3.4 SW 13 22 7 12 1022.2 1022.2 0.0
21/04:30pm 12.8 8.5 5.2 60 3.6 SW 17 24 9 13 1022.4 1022.4 0.0
21/04:00pm 13.0 9.0 4.9 58 3.8 SW 15 28 8 15 1022.7 1022.7 0.0
21/03:30pm 13.4 9.4 4.8 56 4.0 SW 15 28 8 15 1022.8 1022.8 0.0
21/03:00pm 12.8 8.7 6.4 65 3.1 SW 17 30 9 16 1023.2 1023.2 0.0
21/02:30pm 13.6 9.9 6.5 62 3.5 WSW 15 20 8 11 1023.6 1023.6 0.0
21/02:00pm 11.4 7.7 6.1 70 2.5 WSW 15 26 8 14 1024.1 1024.1 0.0
21/01:30pm 12.3 8.9 6.1 66 3.0 SW 13 20 7 11 1024.3 1024.3 0.0
21/01:00pm 11.7 8.3 6.0 68 2.7 SW 13 24 7 13 1024.6 1024.6 0.0
21/12:30pm 12.0 9.2 7.1 72 2.4 WSW 11 19 6 10 1025.1 1025.0 0.0
21/12:00pm 11.0 6.5 6.2 72 2.3 W 19 24 10 13 1025.6 1025.6 0.0
21/11:30am 11.4 7.1 5.3 66 2.8 SW 17 26 9 14 1025.8 1025.8 0.0
21/11:00am 11.4 7.8 5.1 65 2.9 SW 13 24 7 13 1025.9 1025.9 0.0
21/10:30am 10.9 7.5 6.1 72 2.3 SSW 13 20 7 11 1026.2 1026.2 0.0
21/10:00am 10.6 7.2 5.8 72 2.2 SW 13 22 7 12 1026.0 1026.0 0.0
21/09:30am 11.3 8.7 6.0 70 2.5 SSW 9 17 5 9 1026.1 1026.1 0.0
21/09:00am 10.1 7.4 5.5 73 2.1 SW 9 13 5 7 1026.4 1026.4 0.0
21/08:30am 9.4 7.1 5.8 78 1.7 SW 7 11 4 6 1026.5 1026.5 0.0
21/08:00am 9.0 6.8 5.2 77 1.7 SW 6 9 3 5 1026.4 1026.4 0.0
21/07:30am 8.9 6.6 4.7 75 1.9 SSW 6 9 3 5 1026.4 1026.4 0.0
21/07:00am 8.8 6.3 4.6 75 1.9 SW 7 11 4 6 1026.4 1026.4 0.0
21/06:30am 8.6 6.6 4.4 75 1.9 WSW 4 6 2 3 1026.4 1026.4 0.0
21/06:00am 8.6 7.0 4.4 75 1.9 SSW 2 4 1 2 1026.4 1026.4 0.0
21/05:30am 8.6 6.2 4.2 74 2.0 SSW 6 9 3 5 1026.3 1026.3 0.0
21/05:00am 8.6 6.0 4.4 75 1.9 SW 7 13 4 7 1026.4 1026.4 0.0
21/04:30am 8.7 6.7 4.3 74 2.0 SW 4 7 2 4 1026.6 1026.6 0.0
21/04:00am 8.6 6.2 4.2 74 1.9 SSW 6 7 3 4 1026.9 1026.9 0.0
21/03:30am 8.5 6.1 4.1 74 1.9 SW 6 9 3 5 1027.0 1027.0 0.0
21/03:00am 8.6 5.9 3.8 72 2.1 SW 7 13 4 7 1027.3 1027.3 0.0
21/02:30am 8.4 5.9 3.7 72 2.1 WSW 6 9 3 5 1027.7 1027.7 0.0
21/02:00am 8.8 5.7 3.4 69 2.3 SSW 9 15 5 8 1028.0 1028.0 0.0
21/01:30am 8.3 5.5 3.4 71 2.1 SW 7 11 4 6 1028.3 1028.3 0.0
21/01:00am 7.3 4.7 3.4 76 1.7 WSW 6 9 3 5 1028.6 1028.6 0.0
21/12:30am 6.8 4.1 2.9 76 1.6 WSW 6 11 3 6 1028.7 1028.7 0.0
21/12:00am 6.8 4.1 2.9 76 1.6 WSW 6 9 3 5 1028.8 1028.8 0.0
 
Date/Time
EDT
Temp
°C
App
Temp
°C
Dew
Point
°C
Rel
Hum
%
Delta-T
°C
Wind Press
QNH
hPa
Press
MSL
hPa
Rain since
9am
mm
Dir  Spd
km/h
Gust
km/h
Spd
kts
Gust
kts
20/11:30pm 7.0 4.8 3.3 77 1.6 WSW 4 7 2 4 1029.0 1029.1 0.0
20/11:00pm 6.8 4.6 3.4 79 1.4 W 4 6 2 3 1029.1 1029.2 0.0
20/10:30pm 7.7 5.5 3.4 74 1.9 WSW 4 7 2 4 1029.5 1029.5 0.0
20/10:00pm 8.1 5.3 3.4 72 2.0 SW 7 13 4 7 1029.6 1029.6 0.0
20/09:30pm 9.1 6.5 4.1 71 2.2 SSW 7 13 4 7 1029.6 1029.6 0.0
20/09:00pm 9.7 6.4 4.5 70 2.3 SSW 11 15 6 8 1029.5 1029.5 0.0
20/08:30pm 9.9 7.3 4.3 68 2.5 SSE 7 13 4 7 1029.1 1029.2 0.0
20/08:00pm 10.4 7.9 4.8 68 2.5 S 7 11 4 6 1029.0 1029.1 0.0
20/07:30pm 10.7 7.4 4.6 66 2.8 SSE 11 17 6 9 1028.5 1028.5 0.0
20/07:00pm 11.2 7.5 4.7 64 3.0 SSE 13 19 7 10 1028.2 1028.2 0.0
20/06:30pm 11.8 8.2 4.8 62 3.2 SSE 13 20 7 11 1028.1 1028.1 0.0
20/06:00pm 12.8 8.9 5.5 61 3.4 S 15 20 8 11 1027.9 1027.9 0.0
20/05:30pm 13.3 9.9 5.9 61 3.5 S 13 22 7 12 1027.7 1027.7 0.0
20/05:00pm 13.4 9.9 5.3 58 3.8 S 13 19 7 10 1027.6 1027.6 0.0
20/04:30pm 13.6 10.0 5.0 56 4.0 S 13 28 7 15 1027.5 1027.5 0.0
20/04:00pm 13.7 9.7 5.1 56 4.0 S 15 24 8 13 1027.5 1027.5 0.0
20/03:30pm 14.3 10.3 4.9 53 4.4 SSE 15 22 8 12 1027.6 1027.6 0.0
20/03:00pm 15.7 10.9 4.4 47 5.3 S 19 32 10 17 1027.6 1027.6 0.0
20/02:30pm 14.8 10.1 3.3 46 5.3 SSW 17 26 9 14 1027.8 1027.8 0.0
20/02:00pm 14.3 9.7 3.7 49 4.8 SSW 17 24 9 13 1027.9 1027.9 0.0

Latest Capital City Observations: Canberra | Sydney | Melbourne | Brisbane | Adelaide | Perth | Hobart | Darwin

Other Formats:

Comma delimited format used in spreadsheet applications
http://www.bom.gov.au/fwo/IDV60901/IDV60901.94863.axf

JavaScript Object Notation format (JSON) in row-major order
http://www.bom.gov.au/fwo/IDV60901/IDV60901.94863.json